Time,TemperatureF,DewpointF,PressureIn,WindDirection,WindDirectionDegrees,WindSpeedMPH,WindSpeedGustMPH,Humidity,HourlyPrecipIn,Conditions,Clouds,dailyrainin,SoftwareType,DateUTC
2013-02-12 00:01:00,23.0,21.0,-100.00,SSE,150,2.0,3.0,90,-99.99,,,-99.99,,2013-02-12 06:01:00,
2013-02-12 00:32:00,23.0,21.0,-100.00,ESE,110,1.0,2.0,90,-99.99,,,-99.99,,2013-02-12 06:32:00,
2013-02-12 00:42:00,23.0,21.0,-100.00,ESE,110,1.0,2.0,90,-99.99,,,-99.99,,2013-02-12 06:42:00,
2013-02-12 00:52:00,23.0,21.0,-100.00,ESE,110,1.0,2.0,90,-99.99,,,-99.99,,2013-02-12 06:52:00,
2013-02-12 01:01:00,23.0,21.0,-100.00,ESE,110,1.0,2.0,90,-99.99,,,-99.99,,2013-02-12 07:01:00,
2013-02-12 01:32:00,23.0,20.0,-100.00,SW,225,0.0,1.0,90,-99.99,,,-99.99,,2013-02-12 07:32:00,
2013-02-12 01:42:00,23.0,20.0,-100.00,SW,225,0.0,1.0,90,-99.99,,,-99.99,,2013-02-12 07:42:00,
2013-02-12 01:52:00,23.0,20.0,-100.00,SW,225,0.0,1.0,90,-99.99,,,-99.99,,2013-02-12 07:52:00,
2013-02-12 02:01:00,23.0,20.0,-100.00,SW,225,0.0,1.0,90,-99.99,,,-99.99,,2013-02-12 08:01:00,
2013-02-12 02:32:00,21.0,19.0,-100.00,NE,50,1.0,1.0,91,-99.99,,,-99.99,,2013-02-12 08:32:00,
2013-02-12 02:42:00,21.0,19.0,-100.00,NE,50,1.0,1.0,91,-99.99,,,-99.99,,2013-02-12 08:42:00,
2013-02-12 02:52:00,21.0,19.0,-100.00,NE,50,1.0,1.0,91,-99.99,,,-99.99,,2013-02-12 08:52:00,
2013-02-12 03:01:00,21.0,19.0,-100.00,NE,50,1.0,1.0,91,-99.99,,,-99.99,,2013-02-12 09:01:00,
2013-02-12 03:32:00,23.0,20.0,-100.00,WNW,290,5.0,6.0,87,-99.99,,,-99.99,,2013-02-12 09:32:00,
2013-02-12 03:42:00,23.0,20.0,-100.00,WNW,290,5.0,6.0,87,-99.99,,,-99.99,,2013-02-12 09:42:00,
2013-02-12 03:52:00,23.0,20.0,-100.00,WNW,290,5.0,6.0,87,-99.99,,,-99.99,,2013-02-12 09:52:00,
2013-02-12 04:01:00,23.0,20.0,-100.00,WNW,290,5.0,6.0,87,-99.99,,,-99.99,,2013-02-12 10:01:00,
2013-02-12 04:32:00,24.0,20.0,-100.00,WNW,300,4.0,6.0,85,-99.99,,,-99.99,,2013-02-12 10:32:00,
2013-02-12 04:43:00,24.0,20.0,-100.00,WNW,300,4.0,6.0,85,-99.99,,,-99.99,,2013-02-12 10:43:00,
2013-02-12 04:52:00,24.0,20.0,-100.00,WNW,300,4.0,6.0,85,-99.99,,,-99.99,,2013-02-12 10:52:00,
2013-02-12 05:01:00,24.0,20.0,-100.00,WNW,300,4.0,6.0,85,-99.99,,,-99.99,,2013-02-12 11:01:00,
2013-02-12 05:32:00,22.0,19.0,-100.00,NW,315,3.0,6.0,88,-99.99,,,-99.99,,2013-02-12 11:32:00,
2013-02-12 05:42:00,22.0,19.0,-100.00,NW,315,3.0,6.0,88,-99.99,,,-99.99,,2013-02-12 11:42:00,
2013-02-12 05:52:00,22.0,19.0,-100.00,NW,315,3.0,6.0,88,-99.99,,,-99.99,,2013-02-12 11:52:00,
2013-02-12 06:01:00,22.0,19.0,-100.00,NW,315,3.0,6.0,88,-99.99,,,-99.99,,2013-02-12 12:01:00,
2013-02-12 06:32:00,20.0,19.0,-100.00,NW,315,3.0,4.0,93,-99.99,,,-99.99,,2013-02-12 12:32:00,
2013-02-12 06:42:00,20.0,19.0,-100.00,NW,315,3.0,4.0,93,-99.99,,,-99.99,,2013-02-12 12:42:00,
2013-02-12 06:53:00,20.0,19.0,-100.00,NW,315,3.0,4.0,93,-99.99,,,-99.99,,2013-02-12 12:53:00,
2013-02-12 07:01:00,20.0,19.0,-100.00,NW,315,3.0,4.0,93,-99.99,,,-99.99,,2013-02-12 13:01:00,
2013-02-12 07:32:00,20.0,19.0,-100.00,WNW,285,2.0,4.0,94,-99.99,,,-99.99,,2013-02-12 13:32:00,
2013-02-12 07:42:00,20.0,19.0,-100.00,WNW,285,2.0,4.0,94,-99.99,,,-99.99,,2013-02-12 13:42:00,
2013-02-12 07:52:00,20.0,19.0,-100.00,WNW,285,2.0,4.0,94,-99.99,,,-99.99,,2013-02-12 13:52:00,
2013-02-12 08:01:00,20.0,19.0,-100.00,WNW,285,2.0,4.0,94,-99.99,,,-99.99,,2013-02-12 14:01:00,
2013-02-12 08:02:00,20.0,19.0,-100.00,NW,325,3.0,6.0,96,-99.99,,,-99.99,,2013-02-12 14:02:00,
2013-02-12 08:32:00,20.0,19.0,-100.00,NW,325,3.0,6.0,96,-99.99,,,-99.99,,2013-02-12 14:32:00,
2013-02-12 08:42:00,20.0,19.0,-100.00,NW,325,3.0,6.0,96,-99.99,,,-99.99,,2013-02-12 14:42:00,
2013-02-12 08:52:00,20.0,19.0,-100.00,NW,325,3.0,6.0,96,-99.99,,,-99.99,,2013-02-12 14:52:00,
2013-02-12 09:32:00,24.0,22.0,-100.00,NW,315,4.0,7.0,94,-99.99,,,-99.99,,2013-02-12 15:32:00,
2013-02-12 09:42:00,24.0,22.0,-100.00,NW,315,4.0,7.0,94,-99.99,,,-99.99,,2013-02-12 15:42:00,
2013-02-12 09:52:00,24.0,22.0,-100.00,NW,315,4.0,7.0,94,-99.99,,,-99.99,,2013-02-12 15:52:00,
2013-02-12 10:01:00,24.0,22.0,-100.00,NW,315,4.0,7.0,94,-99.99,,,-99.99,,2013-02-12 16:01:00,
2013-02-12 10:32:00,27.0,22.0,-100.00,NW,305,11.0,12.0,81,-99.99,,,-99.99,,2013-02-12 16:32:00,
2013-02-12 10:42:00,27.0,22.0,-100.00,NW,305,11.0,12.0,81,-99.99,,,-99.99,,2013-02-12 16:42:00,
2013-02-12 10:52:00,27.0,22.0,-100.00,NW,305,11.0,12.0,81,-99.99,,,-99.99,,2013-02-12 16:52:00,
2013-02-12 11:01:00,27.0,22.0,-100.00,NW,305,11.0,12.0,81,-99.99,,,-99.99,,2013-02-12 17:01:00,
2013-02-12 11:32:00,30.0,24.0,-100.00,WNW,290,12.0,14.0,78,-99.99,,,-99.99,,2013-02-12 17:32:00,
2013-02-12 11:42:00,30.0,24.0,-100.00,WNW,290,12.0,14.0,78,-99.99,,,-99.99,,2013-02-12 17:42:00,
2013-02-12 11:52:00,30.0,24.0,-100.00,WNW,290,12.0,14.0,78,-99.99,,,-99.99,,2013-02-12 17:52:00,
2013-02-12 12:01:00,30.0,24.0,-100.00,WNW,290,12.0,14.0,78,-99.99,,,-99.99,,2013-02-12 18:01:00,
2013-02-12 12:02:00,32.0,25.0,-100.00,WNW,300,5.0,7.0,74,-99.99,,,-99.99,,2013-02-12 18:02:00,
2013-02-12 12:32:00,32.0,25.0,-100.00,WNW,300,5.0,7.0,74,-99.99,,,-99.99,,2013-02-12 18:32:00,
2013-02-12 12:42:00,32.0,25.0,-100.00,WNW,300,5.0,7.0,74,-99.99,,,-99.99,,2013-02-12 18:42:00,
2013-02-12 12:52:00,32.0,25.0,-100.00,WNW,300,5.0,7.0,74,-99.99,,,-99.99,,2013-02-12 18:52:00,
2013-02-12 13:32:00,34.0,26.0,-100.00,WNW,295,12.0,14.0,73,-99.99,,,-99.99,,2013-02-12 19:32:00,
2013-02-12 13:42:00,34.0,26.0,-100.00,WNW,295,12.0,14.0,73,-99.99,,,-99.99,,2013-02-12 19:42:00,
2013-02-12 13:52:00,34.0,26.0,-100.00,WNW,295,12.0,14.0,73,-99.99,,,-99.99,,2013-02-12 19:52:00,
2013-02-12 14:01:00,34.0,26.0,-100.00,WNW,295,12.0,14.0,73,-99.99,,,-99.99,,2013-02-12 20:01:00,
2013-02-12 14:32:00,36.0,27.0,-100.00,WNW,290,14.0,16.0,71,-99.99,,,-99.99,,2013-02-12 20:32:00,
2013-02-12 14:42:00,36.0,27.0,-100.00,WNW,290,14.0,16.0,71,-99.99,,,-99.99,,2013-02-12 20:42:00,
2013-02-12 14:52:00,36.0,27.0,-100.00,WNW,290,14.0,16.0,71,-99.99,,,-99.99,,2013-02-12 20:52:00,
2013-02-12 15:01:00,36.0,27.0,-100.00,WNW,290,14.0,16.0,71,-99.99,,,-99.99,,2013-02-12 21:01:00,
2013-02-12 15:32:00,37.0,27.0,-100.00,WNW,295,15.0,18.0,67,-99.99,,,-99.99,,2013-02-12 21:32:00,
2013-02-12 15:42:00,37.0,27.0,-100.00,WNW,295,15.0,18.0,67,-99.99,,,-99.99,,2013-02-12 21:42:00,
2013-02-12 15:52:00,37.0,27.0,-100.00,WNW,295,15.0,18.0,67,-99.99,,,-99.99,,2013-02-12 21:52:00,
2013-02-12 16:01:00,37.0,27.0,-100.00,WNW,295,15.0,18.0,67,-99.99,,,-99.99,,2013-02-12 22:01:00,
2013-02-12 16:32:00,37.0,28.0,-100.00,WNW,295,10.0,11.0,70,-99.99,,,-99.99,,2013-02-12 22:32:00,
2013-02-12 16:42:00,37.0,28.0,-100.00,WNW,295,10.0,11.0,70,-99.99,,,-99.99,,2013-02-12 22:42:00,
2013-02-12 16:52:00,37.0,28.0,-100.00,WNW,295,10.0,11.0,70,-99.99,,,-99.99,,2013-02-12 22:52:00,
2013-02-12 17:01:00,37.0,28.0,-100.00,WNW,295,10.0,11.0,70,-99.99,,,-99.99,,2013-02-12 23:01:00,
2013-02-12 17:02:00,36.0,29.0,-100.00,WNW,290,7.0,8.0,78,-99.99,,,-99.99,,2013-02-12 23:02:00,
2013-02-12 17:32:00,36.0,29.0,-100.00,WNW,290,7.0,8.0,78,-99.99,,,-99.99,,2013-02-12 23:32:00,
2013-02-12 17:42:00,36.0,29.0,-100.00,WNW,290,7.0,8.0,78,-99.99,,,-99.99,,2013-02-12 23:42:00,
2013-02-12 17:52:00,36.0,29.0,-100.00,WNW,290,7.0,8.0,78,-99.99,,,-99.99,,2013-02-12 23:52:00,
2013-02-12 18:32:00,36.0,29.0,-100.00,West,275,2.0,3.0,78,-99.99,,,-99.99,,2013-02-13 00:32:00,
2013-02-12 18:42:00,36.0,29.0,-100.00,West,275,2.0,3.0,78,-99.99,,,-99.99,,2013-02-13 00:42:00,
2013-02-12 18:52:00,36.0,29.0,-100.00,West,275,2.0,3.0,78,-99.99,,,-99.99,,2013-02-13 00:52:00,
2013-02-12 19:01:00,36.0,29.0,-100.00,West,275,2.0,3.0,78,-99.99,,,-99.99,,2013-02-13 01:01:00,
2013-02-12 19:32:00,36.0,30.0,-100.00,SSW,200,0.0,1.0,77,-99.99,,,-99.99,,2013-02-13 01:32:00,
2013-02-12 19:42:00,36.0,30.0,-100.00,SSW,200,0.0,1.0,77,-99.99,,,-99.99,,2013-02-13 01:42:00,
2013-02-12 19:52:00,36.0,30.0,-100.00,SSW,200,0.0,1.0,77,-99.99,,,-99.99,,2013-02-13 01:52:00,
2013-02-12 20:01:00,36.0,30.0,-100.00,SSW,200,0.0,1.0,77,-99.99,,,-99.99,,2013-02-13 02:01:00,
2013-02-12 20:32:00,36.0,30.0,-100.00,SE,130,1.0,1.0,78,-99.99,,,-99.99,,2013-02-13 02:32:00,
2013-02-12 20:42:00,36.0,30.0,-100.00,SE,130,1.0,1.0,78,-99.99,,,-99.99,,2013-02-13 02:42:00,
2013-02-12 20:52:00,36.0,30.0,-100.00,SE,130,1.0,1.0,78,-99.99,,,-99.99,,2013-02-13 02:52:00,
2013-02-12 21:01:00,36.0,30.0,-100.00,SE,130,1.0,1.0,78,-99.99,,,-99.99,,2013-02-13 03:01:00,
2013-02-12 21:32:00,35.0,30.0,-100.00,South,185,0.0,0.0,81,-99.99,,,-99.99,,2013-02-13 03:32:00,
2013-02-12 21:42:00,35.0,30.0,-100.00,South,185,0.0,0.0,81,-99.99,,,-99.99,,2013-02-13 03:42:00,
2013-02-12 21:52:00,35.0,30.0,-100.00,South,185,0.0,0.0,81,-99.99,,,-99.99,,2013-02-13 03:52:00,
2013-02-12 22:01:00,35.0,30.0,-100.00,South,185,0.0,0.0,81,-99.99,,,-99.99,,2013-02-13 04:01:00,
2013-02-12 22:32:00,35.0,30.0,-100.00,SW,230,1.0,1.0,82,-99.99,,,-99.99,,2013-02-13 04:32:00,
2013-02-12 22:42:00,35.0,30.0,-100.00,SW,230,1.0,1.0,82,-99.99,,,-99.99,,2013-02-13 04:42:00,
2013-02-12 22:52:00,35.0,30.0,-100.00,SW,230,1.0,1.0,82,-99.99,,,-99.99,,2013-02-13 04:52:00,
2013-02-12 23:01:00,35.0,30.0,-100.00,SW,230,1.0,1.0,82,-99.99,,,-99.99,,2013-02-13 05:01:00,
2013-02-12 23:02:00,35.0,31.0,-100.00,West,280,2.0,3.0,83,-99.99,,,-99.99,,2013-02-13 05:02:00,
2013-02-12 23:32:00,35.0,31.0,-100.00,West,280,2.0,3.0,83,-99.99,,,-99.99,,2013-02-13 05:32:00,
2013-02-12 23:42:00,35.0,31.0,-100.00,West,280,2.0,3.0,83,-99.99,,,-99.99,,2013-02-13 05:42:00,
2013-02-12 23:52:00,35.0,31.0,-100.00,West,280,2.0,3.0,83,-99.99,,,-99.99,,2013-02-13 05:52:00,